Time;durP1;ratioP1;P1;durP2;ratioP2;P2;SDS_P1;SDS_P2;PMS_P1;PMS_P2;Temp;Humidity;BMP_temperature;BMP_pressure;BME280_temperature;BME280_humidity;BME280_pressure;Samples;Min_cycle;Max_cycle;Signal;HPM_P1;HPM_P2
2023/02/03 00:01:37;;;;;;;3.30;1.25;;;10.20;66.60;;;;;;2212480;56;20980;-88
2023/02/03 00:04:03;;;;;;;3.97;1.33;;;10.20;66.60;;;;;;2429918;55;20929;-86
2023/02/03 00:06:31;;;;;;;3.65;1.10;;;10.20;66.60;;;;;;2428421;55;21622;-87
2023/02/03 00:08:58;;;;;;;2.70;1.20;;;10.20;66.60;;;;;;2428480;55;21076;-88
2023/02/03 00:11:24;;;;;;;3.80;1.42;;;10.20;66.50;;;;;;2211367;56;21974;-87
2023/02/03 00:13:51;;;;;;;2.30;0.90;;;10.20;66.50;;;;;;2211579;56;20961;-87
2023/02/03 00:16:17;;;;;;;4.30;1.00;;;10.20;66.50;;;;;;2427546;55;21025;-87
2023/02/03 00:18:43;;;;;;;2.58;1.05;;;10.20;66.50;;;;;;2224260;56;21031;-88
2023/02/03 00:21:10;;;;;;;2.92;1.10;;;10.20;66.40;;;;;;2219848;56;21085;-87
2023/02/03 00:23:36;;;;;;;2.70;1.30;;;10.20;66.40;;;;;;2428449;55;21013;-88
2023/02/03 00:26:07;;;;;;;3.80;1.20;;;10.20;66.40;;;;;;2426772;55;20997;-87
2023/02/03 00:28:33;;;;;;;2.60;1.17;;;10.20;66.40;;;;;;2426672;55;21041;-86
2023/02/03 00:30:59;;;;;;;3.85;1.10;;;10.20;66.40;;;;;;2426573;55;21104;-86
2023/02/03 00:33:26;;;;;;;3.97;1.02;;;10.20;66.30;;;;;;2426450;55;20965;-86
2023/02/03 00:35:52;;;;;;;4.03;1.10;;;10.20;66.40;;;;;;2426316;55;21017;-85
2023/02/03 00:38:18;;;;;;;3.05;0.88;;;10.20;66.30;;;;;;2426746;55;20949;-87
2023/02/03 00:40:52;;;;;;;3.62;0.98;;;10.20;66.40;;;;;;2208936;56;21024;-86
2023/02/03 00:43:18;;;;;;;4.30;1.02;;;10.20;66.20;;;;;;2427002;55;21852;-86
2023/02/03 00:45:45;;;;;;;2.87;0.88;;;10.20;66.40;;;;;;2209365;56;21965;-87
2023/02/03 00:48:11;;;;;;;3.17;1.10;;;10.30;66.50;;;;;;2426837;55;21012;-85
2023/02/03 00:50:37;;;;;;;2.45;0.90;;;10.20;66.40;;;;;;2426464;55;21943;-88
2023/02/03 00:53:04;;;;;;;2.58;0.90;;;10.20;66.40;;;;;;2426954;55;20989;-87
2023/02/03 00:55:30;;;;;;;3.80;0.93;;;10.20;66.40;;;;;;2426281;55;21048;-86
2023/02/03 00:57:56;;;;;;;3.50;1.08;;;10.20;66.40;;;;;;2209797;56;21975;-87
2023/02/03 01:00:22;;;;;;;2.87;1.12;;;10.20;66.40;;;;;;2426251;55;21049;-87
2023/02/03 01:02:49;;;;;;;3.12;1.00;;;10.20;66.40;;;;;;2209448;56;20985;-85
2023/02/03 01:05:15;;;;;;;2.03;0.70;;;10.20;66.40;;;;;;2425858;55;20965;-86
2023/02/03 01:07:42;;;;;;;2.40;0.90;;;10.20;66.40;;;;;;2208841;56;21166;-87
2023/02/03 01:10:09;;;;;;;2.92;0.90;;;10.20;66.40;;;;;;2209633;56;20961;-86
2023/02/03 01:12:35;;;;;;;2.90;0.93;;;10.20;66.50;;;;;;2425984;55;21009;-87
2023/02/03 01:15:02;;;;;;;2.75;0.90;;;10.20;66.30;;;;;;2422759;55;21163;-86
2023/02/03 01:17:28;;;;;;;2.45;0.98;;;10.20;66.40;;;;;;2425800;55;20969;-87
2023/02/03 01:19:54;;;;;;;2.10;0.85;;;10.10;66.30;;;;;;2208631;56;22062;-87
2023/02/03 01:22:20;;;;;;;3.60;0.90;;;10.20;66.30;;;;;;2209378;56;21004;-85
2023/02/03 01:24:47;;;;;;;2.17;0.80;;;10.20;66.30;;;;;;2425483;55;21080;-88
2023/02/03 01:27:13;;;;;;;2.62;0.85;;;10.10;66.20;;;;;;2209109;56;21960;-87
2023/02/03 01:29:39;;;;;;;1.98;0.70;;;10.10;66.30;;;;;;2208929;56;20945;-87
2023/02/03 01:32:05;;;;;;;2.80;0.80;;;10.10;66.30;;;;;;2426304;55;21021;-85
2023/02/03 01:34:32;;;;;;;2.55;0.80;;;10.10;66.30;;;;;;2425533;55;21024;-87
2023/02/03 01:36:58;;;;;;;3.92;1.00;;;10.10;66.30;;;;;;2209387;56;21033;-86
2023/02/03 01:39:25;;;;;;;2.97;0.93;;;10.10;66.30;;;;;;2209244;56;20965;-86
2023/02/03 01:41:53;;;;;;;3.67;0.93;;;10.10;66.40;;;;;;2425741;55;21041;-85
2023/02/03 01:44:37;;;;;;;2.30;0.73;;;10.20;66.40;;;;;;2425748;55;21025;-84
2023/02/03 01:47:04;;;;;;;2.12;0.80;;;10.20;66.00;;;;;;2425670;55;20961;-85
2023/02/03 01:49:33;;;;;;;1.95;0.70;;;10.20;66.30;;;;;;2425687;55;21025;-84
2023/02/03 01:51:59;;;;;;;1.92;0.80;;;10.10;66.20;;;;;;2425728;55;21918;-87
2023/02/03 01:54:30;;;;;;;3.25;1.08;;;10.10;66.10;;;;;;2208429;56;22011;-87
2023/02/03 01:57:05;;;;;;;2.17;0.80;;;10.10;66.10;;;;;;2434802;55;21071;-86
2023/02/03 01:59:31;;;;;;;2.25;0.80;;;10.10;65.90;;;;;;2439478;55;21318;-86
2023/02/03 02:01:57;;;;;;;2.80;1.20;;;10.10;66.10;;;;;;2208988;56;20984;-84
2023/02/03 02:04:25;;;;;;;3.15;0.90;;;10.10;66.00;;;;;;2425460;55;21001;-85
2023/02/03 02:06:52;;;;;;;5.43;0.77;;;10.10;66.10;;;;;;2208610;56;21038;-86
2023/02/03 02:09:18;;;;;;;1.77;0.70;;;10.10;66.10;;;;;;2425923;55;20953;-86
2023/02/03 02:11:44;;;;;;;2.87;0.80;;;10.10;66.10;;;;;;2425976;55;20972;-87
2023/02/03 02:14:10;;;;;;;2.78;0.82;;;10.10;66.10;;;;;;2424489;55;20946;-84
2023/02/03 02:16:49;;;;;;;2.30;0.70;;;10.10;66.10;;;;;;2423906;55;21000;-86
2023/02/03 02:19:52;;;;;;;2.42;0.85;;;10.10;65.90;;;;;;2424880;55;20965;-86
2023/02/03 02:22:45;;;;;;;;;;;10.10;65.80;;;;;;2428749;55;21064;-85
2023/02/03 02:25:35;;;;;;;1.80;0.75;;;10.10;65.50;;;;;;2424601;55;20046;-86
2023/02/03 02:29:09;;;;;;;2.50;0.95;;;10.10;65.60;;;;;;2424900;55;20985;-85
2023/02/03 02:38:14;;;;;;;2.92;0.80;;;10.10;65.60;;;;;;2429049;55;22042;-86
2023/02/03 02:41:36;;;;;;;1.52;0.50;;;10.10;65.20;;;;;;2422313;55;21009;-85
2023/02/03 02:44:24;;;;;;;3.30;0.62;;;10.10;65.20;;;;;;2423407;55;20953;-86
2023/02/03 02:46:57;;;;;;;1.15;0.50;;;10.00;65.40;;;;;;2206594;56;20952;-84
2023/02/03 02:49:32;;;;;;;2.00;0.65;;;10.00;65.70;;;;;;2423727;55;22123;-86
2023/02/03 02:52:00;;;;;;;1.50;0.55;;;10.00;65.60;;;;;;2423690;55;20989;-84
2023/02/03 02:54:27;;;;;;;3.47;0.70;;;10.00;65.80;;;;;;2423255;55;21415;-86
2023/02/03 02:56:54;;;;;;;1.40;0.50;;;9.90;66.80;;;;;;2422576;55;21011;-86
2023/02/03 02:59:21;;;;;;;1.60;0.50;;;9.90;66.80;;;;;;2423408;55;21021;-85
2023/02/03 03:01:47;;;;;;;1.65;0.60;;;9.90;66.80;;;;;;2422955;55;21053;-85
2023/02/03 03:04:15;;;;;;;1.48;0.50;;;9.90;66.90;;;;;;2423728;55;20961;-85
2023/02/03 03:06:44;;;;;;;1.85;0.40;;;9.90;67.00;;;;;;2423101;55;22136;-86
2023/02/03 03:09:15;;;;;;;1.87;0.60;;;9.90;67.00;;;;;;2423784;55;21000;-85
2023/02/03 03:11:48;;;;;;;2.25;0.52;;;9.90;67.00;;;;;;2423528;55;20953;-85
2023/02/03 03:14:15;;;;;;;1.25;0.37;;;9.90;67.00;;;;;;2424849;55;20950;-86
2023/02/03 03:16:43;;;;;;;1.25;0.50;;;9.90;67.00;;;;;;2207349;56;20954;-86
2023/02/03 03:19:11;;;;;;;1.23;0.50;;;9.90;67.00;;;;;;2208776;56;21155;-85
2023/02/03 03:21:44;;;;;;;3.78;0.73;;;9.90;67.00;;;;;;2425303;55;20977;-85
2023/02/03 03:24:12;;;;;;;1.65;0.60;;;9.90;66.90;;;;;;2425597;55;21064;-85
2023/02/03 03:26:49;;;;;;;1.67;0.60;;;9.90;66.90;;;;;;2208151;56;21041;-85
2023/02/03 03:29:30;;;;;;;2.67;0.68;;;9.90;66.60;;;;;;2425402;55;21870;-86
2023/02/03 03:31:56;;;;;;;1.30;0.50;;;9.90;66.70;;;;;;2425268;55;20992;-86
2023/02/03 03:34:22;;;;;;;1.23;0.55;;;9.90;66.80;;;;;;2425388;55;20981;-85
2023/02/03 03:37:07;;;;;;;2.20;0.60;;;9.90;66.80;;;;;;2208715;56;21028;-86
2023/02/03 03:39:59;;;;;;;1.98;0.62;;;9.90;66.60;;;;;;2424895;55;20984;-87
2023/02/03 03:42:53;;;;;;;3.08;0.65;;;10.00;65.40;;;;;;2209741;56;20957;-85
2023/02/03 03:46:11;;;;;;;2.25;0.62;;;9.90;66.50;;;;;;2425556;55;21068;-84
2023/02/03 03:48:46;;;;;;;2.75;0.80;;;9.90;66.00;;;;;;2426237;55;21006;-85
2023/02/03 03:51:33;;;;;;;2.50;0.80;;;9.90;66.60;;;;;;2426351;55;20950;-86
2023/02/03 03:54:03;;;;;;;1.92;0.60;;;9.90;66.30;;;;;;2209193;56;21006;-86
2023/02/03 03:56:34;;;;;;;2.58;0.70;;;9.90;66.50;;;;;;2208174;56;20961;-87
2023/02/03 03:59:01;;;;;;;2.17;0.80;;;9.90;66.50;;;;;;2208604;56;20953;-85
2023/02/03 04:01:28;;;;;;;2.03;0.80;;;9.90;66.60;;;;;;2425610;55;21083;-84
2023/02/03 04:03:59;;;;;;;5.53;1.52;;;9.90;66.60;;;;;;2209026;56;20985;-86
2023/02/03 04:06:25;;;;;;;3.30;0.80;;;9.90;66.40;;;;;;2425011;55;20972;-86
2023/02/03 04:08:51;;;;;;;4.05;0.93;;;9.90;66.40;;;;;;2425935;55;21512;-87
2023/02/03 04:14:02;;;;;;;3.78;0.90;;;9.90;66.40;;;;;;2424823;55;20976;-85
2023/02/03 04:16:29;;;;;;;4.43;1.10;;;9.90;66.30;;;;;;2208553;56;20977;-85
2023/02/03 04:18:56;;;;;;;3.40;1.10;;;9.90;66.30;;;;;;2428165;55;20973;-85
2023/02/03 04:21:23;;;;;;;2.08;0.70;;;9.80;66.60;;;;;;2429365;55;21016;-86
2023/02/03 04:23:51;;;;;;;3.97;0.80;;;10.10;65.30;;;;;;2207501;56;20960;-84
2023/02/03 04:26:18;;;;;;;3.92;0.88;;;9.90;66.30;;;;;;2419571;55;21057;-81
2023/02/03 04:28:44;;;;;;;4.85;1.02;;;9.90;66.30;;;;;;2419570;55;20972;-83
2023/02/03 04:31:10;;;;;;;1.73;0.73;;;9.90;66.30;;;;;;2203717;56;20933;-85
2023/02/03 04:33:37;;;;;;;2.72;0.85;;;9.90;66.30;;;;;;2203664;56;21400;-84
2023/02/03 04:36:03;;;;;;;3.37;1.02;;;9.90;66.30;;;;;;2420083;55;20977;-82
2023/02/03 04:38:30;;;;;;;2.60;0.90;;;9.90;66.30;;;;;;2419138;55;21076;-85
2023/02/03 04:40:56;;;;;;;2.80;0.98;;;9.90;66.30;;;;;;2419040;55;21093;-85
2023/02/03 04:43:22;;;;;;;3.03;0.80;;;9.90;66.30;;;;;;2203915;56;20977;-83
2023/02/03 04:45:48;;;;;;;5.57;1.27;;;9.90;66.30;;;;;;2419358;55;20982;-83
2023/02/03 04:48:15;;;;;;;2.95;0.90;;;9.90;66.20;;;;;;2420594;55;21415;-85
2023/02/03 04:50:41;;;;;;;4.00;1.15;;;9.90;66.20;;;;;;2419305;55;21095;-85
2023/02/03 04:53:07;;;;;;;3.00;1.00;;;9.90;66.20;;;;;;2201444;56;22113;-83
2023/02/03 04:55:34;;;;;;;4.12;1.05;;;9.90;66.20;;;;;;2414249;55;21037;-84
2023/02/03 04:58:00;;;;;;;3.80;1.15;;;9.90;66.30;;;;;;2199566;56;20953;-85
2023/02/03 05:00:27;;;;;;;4.60;1.20;;;9.90;66.30;;;;;;2200627;56;22485;-84
2023/02/03 05:02:57;;;;;;;3.72;1.08;;;9.90;66.20;;;;;;2423702;55;21640;-83
2023/02/03 05:05:23;;;;;;;3.50;0.95;;;9.90;66.30;;;;;;2413739;55;21381;-85
2023/02/03 05:07:49;;;;;;;3.33;0.90;;;9.90;66.20;;;;;;2415286;55;21054;-85
2023/02/03 05:10:16;;;;;;;4.53;0.90;;;9.80;66.10;;;;;;2416587;55;21014;-84
2023/02/03 05:12:42;;;;;;;3.37;1.23;;;9.80;66.10;;;;;;2200693;56;20957;-85
2023/02/03 05:15:09;;;;;;;5.40;1.10;;;9.90;66.10;;;;;;2441990;55;21014;-85
2023/02/03 05:17:38;;;;;;;2.97;1.10;;;9.80;66.00;;;;;;2200932;56;20993;-86
2023/02/03 05:20:07;;;;;;;2.80;1.17;;;9.80;65.90;;;;;;2417169;55;20977;-85
2023/02/03 05:22:34;;;;;;;4.87;1.23;;;9.80;66.00;;;;;;2417061;55;21021;-86
2023/02/03 05:25:01;;;;;;;4.47;1.10;;;9.80;65.90;;;;;;2416683;55;21029;-84
2023/02/03 05:27:27;;;;;;;3.83;1.02;;;9.80;66.00;;;;;;2417044;55;20981;-85
2023/02/03 05:29:54;;;;;;;3.60;1.17;;;9.80;66.00;;;;;;2417523;55;21041;-85
2023/02/03 05:32:20;;;;;;;5.68;1.60;;;9.80;66.10;;;;;;2202452;56;21012;-87
2023/02/03 05:34:46;;;;;;;4.00;1.25;;;9.70;65.90;;;;;;2417924;55;20989;-85
2023/02/03 05:37:12;;;;;;;4.65;1.50;;;9.70;65.90;;;;;;2418550;55;21665;-86
2023/02/03 05:39:39;;;;;;;3.87;1.20;;;9.70;66.00;;;;;;2202482;56;20973;-84
2023/02/03 05:42:05;;;;;;;4.62;1.20;;;9.70;66.10;;;;;;2419957;55;21563;-85
2023/02/03 05:44:31;;;;;;;3.70;1.05;;;9.70;66.10;;;;;;2419305;55;20953;-85
2023/02/03 05:46:58;;;;;;;2.83;1.10;;;9.70;66.10;;;;;;2419076;55;20969;-85
2023/02/03 05:49:24;;;;;;;4.12;1.35;;;9.70;66.10;;;;;;2420880;55;20965;-85
2023/02/03 05:51:51;;;;;;;6.78;1.20;;;9.70;66.10;;;;;;2200722;57;20973;-85
2023/02/03 05:54:17;;;;;;;5.15;1.17;;;9.70;66.10;;;;;;2421805;55;20957;-85
2023/02/03 05:56:44;;;;;;;3.20;1.35;;;9.70;66.10;;;;;;2421266;55;20985;-84
2023/02/03 05:59:10;;;;;;;3.25;1.00;;;9.70;66.20;;;;;;2421563;55;20976;-84
2023/02/03 06:01:36;;;;;;;5.40;1.37;;;9.70;66.20;;;;;;2205698;56;20997;-84
2023/02/03 06:04:03;;;;;;;3.37;1.20;;;9.70;66.20;;;;;;2421711;55;22065;-83
2023/02/03 06:06:33;;;;;;;3.83;1.25;;;9.70;66.30;;;;;;2423206;55;21016;-84
2023/02/03 06:09:00;;;;;;;5.05;1.52;;;9.70;66.20;;;;;;2421613;55;21076;-83
2023/02/03 06:11:27;;;;;;;4.10;1.80;;;9.70;66.30;;;;;;2421064;55;21013;-85
2023/02/03 06:13:54;;;;;;;4.50;1.65;;;9.70;66.30;;;;;;2420084;55;20961;-86
2023/02/03 06:16:23;;;;;;;6.07;1.92;;;9.70;66.30;;;;;;2204218;56;21097;-84
2023/02/03 06:18:53;;;;;;;3.60;1.42;;;9.70;66.20;;;;;;2420140;55;21046;-84
2023/02/03 06:21:19;;;;;;;5.43;1.40;;;9.70;66.20;;;;;;2204787;56;21005;-86
2023/02/03 06:23:46;;;;;;;4.00;1.65;;;9.70;66.30;;;;;;2418930;55;20992;-85
2023/02/03 06:26:12;;;;;;;5.00;1.48;;;9.70;66.30;;;;;;2202482;56;22039;-85
2023/02/03 06:28:38;;;;;;;4.05;1.58;;;9.70;66.30;;;;;;2418454;55;21040;-86
2023/02/03 06:31:05;;;;;;;3.75;1.25;;;9.70;66.30;;;;;;2417879;55;21028;-85
2023/02/03 06:33:31;;;;;;;3.80;1.40;;;9.70;66.40;;;;;;2417693;55;21006;-86
2023/02/03 06:35:58;;;;;;;5.30;1.40;;;9.70;66.40;;;;;;2201627;56;22083;-85
2023/02/03 06:38:25;;;;;;;5.53;1.45;;;9.70;66.40;;;;;;2418292;55;21068;-85
2023/02/03 06:40:51;;;;;;;3.33;1.20;;;9.70;66.40;;;;;;2201100;56;21922;-86
2023/02/03 06:43:17;;;;;;;3.10;1.27;;;9.70;66.40;;;;;;2417085;55;23194;-84
2023/02/03 06:45:45;;;;;;;4.90;1.30;;;9.70;66.30;;;;;;2416365;55;21988;-85
2023/02/03 06:48:11;;;;;;;5.70;1.25;;;9.70;66.40;;;;;;2202535;56;21521;-84
2023/02/03 06:50:37;;;;;;;3.87;1.20;;;9.70;66.50;;;;;;2416739;55;21096;-85
2023/02/03 06:53:03;;;;;;;3.92;1.20;;;9.70;66.50;;;;;;2417108;55;20945;-85
2023/02/03 06:55:30;;;;;;;3.33;1.20;;;9.70;66.40;;;;;;2418283;55;20997;-87
2023/02/03 06:57:56;;;;;;;5.47;1.62;;;9.70;66.50;;;;;;2202957;56;21001;-86
2023/02/03 07:00:23;;;;;;;4.40;1.40;;;9.70;66.50;;;;;;2417907;55;21951;-85
2023/02/03 07:02:53;;;;;;;4.55;1.52;;;9.70;66.50;;;;;;2417465;55;21996;-87
2023/02/03 07:05:23;;;;;;;3.42;1.20;;;9.60;66.40;;;;;;2202298;56;21072;-86
2023/02/03 07:07:49;;;;;;;3.75;1.55;;;9.60;66.40;;;;;;2416599;56;21157;-84
2023/02/03 07:10:16;;;;;;;3.40;1.23;;;9.60;66.40;;;;;;2202089;56;21048;-88
2023/02/03 07:12:43;;;;;;;3.75;1.45;;;9.60;66.50;;;;;;2202469;56;20981;-86
2023/02/03 07:15:10;;;;;;;4.97;1.50;;;9.60;66.60;;;;;;2417975;55;21061;-86
2023/02/03 07:17:36;;;;;;;5.57;1.17;;;9.60;66.60;;;;;;2201719;56;22054;-85
2023/02/03 07:20:03;;;;;;;3.83;1.30;;;9.60;66.60;;;;;;2213998;56;21014;-87
2023/02/03 07:22:29;;;;;;;4.12;1.05;;;9.60;66.70;;;;;;2431795;55;21427;-86
2023/02/03 07:24:55;;;;;;;3.50;1.05;;;9.60;66.70;;;;;;2418118;55;22051;-85
2023/02/03 07:27:22;;;;;;;7.20;1.80;;;9.60;66.80;;;;;;2418532;55;21081;-85
2023/02/03 07:29:48;;;;;;;7.53;1.50;;;9.60;66.80;;;;;;2202186;56;21664;-86
2023/02/03 07:32:15;;;;;;;3.85;1.40;;;9.60;66.80;;;;;;2437449;55;21019;-85
2023/02/03 07:34:41;;;;;;;4.35;1.17;;;9.50;66.70;;;;;;2417651;55;21064;-86
2023/02/03 07:37:08;;;;;;;3.12;1.15;;;9.40;66.60;;;;;;2417293;55;20961;-85
2023/02/03 07:39:34;;;;;;;4.97;1.40;;;9.70;66.80;;;;;;2417212;55;20985;-85
2023/02/03 07:42:01;;;;;;;3.58;1.12;;;9.60;66.80;;;;;;2416043;55;20953;-85
2023/02/03 07:44:27;;;;;;;2.97;1.20;;;9.60;66.80;;;;;;2415360;55;21021;-86
2023/02/03 07:46:54;;;;;;;4.25;1.23;;;9.60;66.90;;;;;;2416634;55;21029;-87
2023/02/03 07:49:20;;;;;;;3.22;1.20;;;9.60;66.90;;;;;;2417577;55;20997;-84
2023/02/03 07:51:47;;;;;;;4.57;1.20;;;9.60;66.90;;;;;;2417211;55;21100;-86
2023/02/03 07:54:14;;;;;;;4.03;1.55;;;9.60;66.90;;;;;;2417738;55;20991;-84
2023/02/03 07:56:41;;;;;;;4.57;1.42;;;9.70;66.90;;;;;;2417542;55;20992;-85
2023/02/03 07:59:08;;;;;;;4.35;1.40;;;9.70;67.10;;;;;;2418449;55;22382;-85
2023/02/03 08:01:34;;;;;;;5.40;1.77;;;9.70;67.10;;;;;;2417417;55;20973;-87
2023/02/03 08:04:01;;;;;;;4.75;1.60;;;9.70;67.10;;;;;;2416733;55;20973;-87
2023/02/03 08:06:29;;;;;;;5.18;1.35;;;9.70;67.10;;;;;;2201832;56;22083;-86
2023/02/03 08:08:55;;;;;;;5.75;1.50;;;9.70;67.10;;;;;;2417364;55;21545;-87
2023/02/03 08:11:21;;;;;;;4.45;1.85;;;9.70;67.00;;;;;;2417653;55;22135;-86
2023/02/03 08:13:48;;;;;;;4.32;1.50;;;9.70;67.10;;;;;;2201459;56;20985;-85
2023/02/03 08:16:14;;;;;;;4.37;1.55;;;9.80;67.10;;;;;;2417805;55;21001;-88
2023/02/03 08:18:40;;;;;;;5.68;1.40;;;9.80;67.10;;;;;;2417275;55;21033;-85
2023/02/03 08:21:07;;;;;;;4.32;1.30;;;9.90;67.10;;;;;;2417641;55;20977;-87
2023/02/03 08:23:34;;;;;;;4.75;1.50;;;9.90;67.00;;;;;;2418370;55;20961;-86
2023/02/03 08:26:00;;;;;;;5.18;1.70;;;9.80;67.10;;;;;;2416359;55;21023;-87
2023/02/03 08:28:26;;;;;;;4.75;1.77;;;9.80;67.00;;;;;;2418092;55;21048;-87
2023/02/03 08:30:56;;;;;;;5.05;1.45;;;9.90;67.10;;;;;;2416495;55;22070;-85
2023/02/03 08:33:23;;;;;;;3.92;1.40;;;10.00;66.00;;;;;;2416593;55;21001;-88
2023/02/03 08:35:49;;;;;;;3.15;1.25;;;9.90;67.10;;;;;;2214756;56;21005;-87
2023/02/03 08:38:15;;;;;;;3.17;1.00;;;9.90;67.00;;;;;;2211269;56;20949;-88
2023/02/03 08:40:42;;;;;;;5.82;1.35;;;9.90;67.10;;;;;;2415623;55;20985;-88
2023/02/03 08:43:08;;;;;;;4.05;1.20;;;9.90;67.00;;;;;;2415590;55;21958;-87
2023/02/03 08:45:34;;;;;;;4.40;1.27;;;9.90;67.10;;;;;;2201876;56;21474;-86
2023/02/03 08:48:00;;;;;;;5.72;1.20;;;10.00;66.00;;;;;;2415257;55;20966;-88
2023/02/03 08:50:27;;;;;;;4.10;1.40;;;10.00;66.00;;;;;;2200782;56;22076;-88
2023/02/03 08:52:54;;;;;;;4.25;1.50;;;10.00;65.90;;;;;;2416157;55;22035;-88
2023/02/03 08:55:20;;;;;;;3.03;1.30;;;10.00;65.90;;;;;;2209189;56;20983;-84
2023/02/03 08:57:46;;;;;;;4.25;1.42;;;10.10;66.00;;;;;;2434149;55;21037;-85
2023/02/03 09:00:14;;;;;;;3.95;1.27;;;10.10;66.00;;;;;;2416374;55;20990;-85
2023/02/03 09:02:41;;;;;;;3.53;1.40;;;10.10;66.00;;;;;;2415966;55;20973;-86
2023/02/03 09:05:08;;;;;;;5.32;1.60;;;10.10;66.00;;;;;;2415572;55;21019;-85
2023/02/03 09:07:34;;;;;;;6.65;2.15;;;10.20;66.10;;;;;;2416412;55;21801;-85
2023/02/03 09:10:00;;;;;;;5.03;1.90;;;10.10;66.00;;;;;;2200065;56;20961;-85
2023/02/03 09:12:27;;;;;;;5.45;1.90;;;10.20;66.10;;;;;;2200211;56;22114;-86
2023/02/03 09:14:53;;;;;;;5.40;1.90;;;10.20;66.10;;;;;;2414949;55;21384;-85
2023/02/03 09:17:19;;;;;;;3.75;1.48;;;10.20;66.10;;;;;;2200356;56;20993;-85
2023/02/03 09:19:46;;;;;;;4.62;1.35;;;10.20;66.10;;;;;;2415578;55;21033;-85
2023/02/03 09:22:12;;;;;;;4.25;1.30;;;10.20;66.20;;;;;;2415414;55;21700;-85
2023/02/03 09:24:39;;;;;;;3.45;1.48;;;10.20;66.20;;;;;;2415891;55;21395;-84
2023/02/03 09:27:05;;;;;;;3.45;1.17;;;10.30;66.50;;;;;;2415681;55;21084;-83
2023/02/03 09:29:32;;;;;;;3.60;1.25;;;10.30;66.30;;;;;;2199996;56;20933;-85
2023/02/03 09:31:59;;;;;;;3.83;1.20;;;10.30;66.50;;;;;;2415873;55;22415;-85
2023/02/03 09:34:25;;;;;;;4.75;1.50;;;10.30;66.50;;;;;;2416065;55;21453;-84
2023/02/03 09:36:51;;;;;;;5.65;1.80;;;10.40;66.50;;;;;;2200151;56;21930;-84
2023/02/03 09:39:18;;;;;;;3.28;1.60;;;10.40;66.40;;;;;;2417216;55;20985;-84
2023/02/03 09:42:02;;;;;;;4.30;1.75;;;10.40;66.30;;;;;;2416418;55;20962;-86
2023/02/03 09:47:44;;;;;;;5.85;1.50;;;10.30;66.00;;;;;;2200885;56;22098;-84
2023/02/03 09:50:18;;;;;;;5.00;1.40;;;10.50;66.30;;;;;;2415675;55;20981;-87
2023/02/03 09:52:45;;;;;;;3.35;1.62;;;10.50;66.40;;;;;;2200892;56;21038;-86
2023/02/03 09:55:41;;;;;;;4.85;1.67;;;10.50;66.40;;;;;;2415955;55;21020;-87
2023/02/03 09:58:19;;;;;;;4.05;1.60;;;10.60;66.40;;;;;;2416154;55;22080;-85
2023/02/03 10:01:00;;;;;;;5.62;2.25;;;10.60;66.40;;;;;;2201002;56;20891;-85
2023/02/03 10:07:04;;;;;;;3.60;1.87;;;10.60;66.40;;;;;;2416324;55;20992;-88
2023/02/03 10:09:44;;;;;;;5.10;1.60;;;10.70;66.20;;;;;;2417552;55;20993;-84
2023/02/03 10:16:00;;;;;;;3.42;1.37;;;10.70;66.60;;;;;;2201921;56;21063;-85
2023/02/03 10:18:35;;;;;;;2.75;1.30;;;10.80;66.40;;;;;;2416467;55;21357;-87
2023/02/03 10:21:03;;;;;;;3.20;1.20;;;10.80;66.80;;;;;;2416183;55;20938;-86
2023/02/03 10:23:32;;;;;;;3.97;1.48;;;10.80;66.80;;;;;;2200899;56;21029;-84
2023/02/03 10:26:00;;;;;;;5.82;1.80;;;10.80;66.80;;;;;;2414729;55;21069;-86
2023/02/03 10:28:31;;;;;;;4.43;1.60;;;10.80;66.80;;;;;;2417344;55;20981;-85
2023/02/03 10:30:59;;;;;;;4.72;1.73;;;10.90;66.80;;;;;;2415999;55;21091;-85
2023/02/03 10:33:26;;;;;;;5.68;1.80;;;10.90;66.80;;;;;;2417484;55;22130;-86
2023/02/03 10:36:11;;;;;;;3.87;1.62;;;10.90;66.80;;;;;;2200576;56;21715;-86
2023/02/03 10:42:09;;;;;;;4.10;1.70;;;10.90;66.70;;;;;;2416841;55;21092;-85
2023/02/03 10:44:57;;;;;;;3.67;1.27;;;11.00;66.30;;;;;;2416648;55;20965;-86
2023/02/03 10:47:33;;;;;;;5.70;1.60;;;11.10;66.90;;;;;;2203525;56;20965;-84
2023/02/03 10:50:18;;;;;;;5.20;1.40;;;11.10;66.80;;;;;;2417272;55;21487;-86
2023/02/03 10:52:44;;;;;;;2.90;1.40;;;11.10;66.70;;;;;;2416858;55;20989;-85
2023/02/03 10:55:29;;;;;;;4.07;1.40;;;11.10;66.90;;;;;;2417312;55;22124;-85
2023/02/03 10:57:56;;;;;;;4.37;1.40;;;11.20;66.70;;;;;;2416522;55;21042;-85
2023/02/03 11:00:33;;;;;;;6.87;1.80;;;11.20;67.00;;;;;;2418021;55;20942;-85
2023/02/03 11:03:19;;;;;;;5.28;1.40;;;11.20;66.70;;;;;;2201476;56;21072;-86
2023/02/03 11:05:46;;;;;;;3.85;1.20;;;11.30;66.90;;;;;;2201798;56;20969;-86
2023/02/03 11:08:15;;;;;;;3.62;1.25;;;11.30;67.00;;;;;;2418052;55;20994;-86
2023/02/03 11:10:42;;;;;;;3.30;1.40;;;11.30;66.80;;;;;;2417877;55;22098;-85
2023/02/03 11:13:27;;;;;;;2.33;1.20;;;11.40;66.90;;;;;;2418311;55;21006;-85
2023/02/03 11:17:46;;;;;;;4.10;1.30;;;11.50;66.60;;;;;;2202254;56;21377;-86
2023/02/03 11:20:14;;;;;;;2.42;1.00;;;11.50;66.90;;;;;;2418367;55;21051;-86
2023/02/03 11:22:41;;;;;;;3.20;1.33;;;11.50;66.70;;;;;;2203827;56;20973;-85
2023/02/03 11:25:19;;;;;;;3.62;1.20;;;11.50;66.60;;;;;;2443777;55;20987;-85
2023/02/03 11:27:45;;;;;;;4.97;1.25;;;11.60;66.50;;;;;;2417857;55;22016;-84
2023/02/03 11:30:21;;;;;;;3.97;1.35;;;11.60;66.80;;;;;;2419533;55;20993;-85
2023/02/03 11:32:47;;;;;;;4.28;1.08;;;11.60;66.60;;;;;;2204664;56;20993;-85
2023/02/03 11:35:22;;;;;;;5.45;1.30;;;11.70;66.70;;;;;;2203513;56;21127;-85
2023/02/03 11:37:51;;;;;;;3.05;1.20;;;11.70;66.60;;;;;;2419834;55;20998;-85
2023/02/03 11:40:25;;;;;;;4.18;1.30;;;11.70;66.60;;;;;;2205391;56;21959;-85
2023/02/03 11:43:03;;;;;;;3.42;1.20;;;11.70;66.30;;;;;;2420573;55;21021;-84
2023/02/03 11:45:36;;;;;;;5.30;1.12;;;11.80;66.30;;;;;;2223867;56;21066;-86
2023/02/03 11:48:38;;;;;;;5.60;1.30;;;11.80;66.40;;;;;;2426626;55;20972;-84
2023/02/03 11:51:32;;;;;;;3.47;1.10;;;11.90;66.30;;;;;;2423121;55;20981;-85
2023/02/03 11:54:26;;;;;;;2.83;0.90;;;11.90;66.10;;;;;;2420834;55;20989;-84
2023/02/03 11:57:29;;;;;;;3.20;1.15;;;11.90;66.00;;;;;;2228700;56;21078;-86
2023/02/03 12:00:17;;;;;;;2.17;0.82;;;12.00;66.20;;;;;;2418931;55;20989;-85
2023/02/03 12:06:54;;;;;;;2.75;0.75;;;12.00;66.70;;;;;;2202925;56;21013;-84
2023/02/03 12:09:39;;;;;;;;;;;12.00;65.50;;;;;;2422664;55;21027;-84
2023/02/03 12:12:21;;;;;;;1.87;0.80;;;12.10;65.50;;;;;;2418666;55;20122;-86
2023/02/03 12:19:40;;;;;;;2.58;0.90;;;12.10;66.00;;;;;;2417558;55;21021;-83
2023/02/03 12:22:28;;;;;;;1.90;0.80;;;12.10;65.40;;;;;;2201449;56;22167;-85
2023/02/03 12:25:07;;;;;;;2.45;0.90;;;12.20;65.60;;;;;;2417846;55;20961;-86
2023/02/03 12:34:26;;;;;;;2.70;0.90;;;12.10;65.70;;;;;;2203614;56;21049;-84
2023/02/03 12:37:11;;;;;;;5.65;1.73;;;12.20;65.20;;;;;;2416259;55;21120;-84
2023/02/03 12:40:22;;;;;;;5.80;2.35;;;12.20;65.60;;;;;;2418045;55;22148;-86
2023/02/03 12:43:20;;;;;;;5.43;2.12;;;12.20;65.50;;;;;;2418593;55;21052;-85
2023/02/03 12:45:56;;;;;;;3.22;1.20;;;12.20;65.50;;;;;;2417292;55;21002;-84
2023/02/03 12:48:35;;;;;;;2.92;1.02;;;12.20;65.90;;;;;;2202157;56;21743;-85
2023/02/03 12:51:04;;;;;;;2.80;1.00;;;12.20;65.90;;;;;;2417543;55;21008;-88
2023/02/03 12:53:32;;;;;;;1.62;0.70;;;12.20;66.00;;;;;;2425640;55;21049;-86
2023/02/03 12:56:09;;;;;;;2.72;0.85;;;12.30;65.80;;;;;;2426186;55;20997;-86
2023/02/03 12:58:44;;;;;;;2.28;0.70;;;12.30;65.50;;;;;;2426435;55;21436;-86
2023/02/03 13:01:19;;;;;;;2.12;0.60;;;12.30;65.60;;;;;;2448087;55;20947;-84
2023/02/03 13:04:41;;;;;;;1.92;0.65;;;12.30;65.50;;;;;;2437217;55;20988;-82
2023/02/03 13:07:35;;;;;;;1.92;0.75;;;12.40;64.50;;;;;;2428976;55;22264;-84
2023/02/03 13:13:10;;;;;;;1.83;0.62;;;12.40;64.90;;;;;;2423096;55;20973;-87
2023/02/03 13:15:38;;;;;;;0.87;0.40;;;12.40;64.50;;;;;;2425811;55;20977;-85
2023/02/03 13:18:26;;;;;;;1.95;0.62;;;12.40;65.20;;;;;;2428548;55;21041;-87
2023/02/03 13:20:53;;;;;;;1.48;0.50;;;12.30;64.50;;;;;;2210875;56;21130;-85
2023/02/03 13:23:19;;;;;;;1.40;0.50;;;12.40;64.90;;;;;;2426060;55;21995;-85
2023/02/03 13:28:59;;;;;;;1.45;0.50;;;12.40;64.90;;;;;;2425274;55;20969;-87
2023/02/03 13:33:23;;;;;;;1.25;0.50;;;12.50;64.90;;;;;;2426549;55;20937;-87
2023/02/03 13:42:56;;;;;;;1.33;0.50;;;12.50;64.20;;;;;;2424565;55;21001;-85
2023/02/03 13:45:43;;;;;;;0.85;0.35;;;12.50;64.10;;;;;;2421920;55;22065;-85
2023/02/03 13:48:19;;;;;;;2.72;1.10;;;12.50;64.20;;;;;;2420942;55;20990;-84
2023/02/03 13:50:45;;;;;;;1.85;0.60;;;12.50;64.70;;;;;;2423235;55;20937;-86
2023/02/03 13:53:22;;;;;;;1.50;0.50;;;12.50;64.80;;;;;;2221540;56;21048;-85
2023/02/03 13:56:01;;;;;;;1.30;0.43;;;12.40;64.50;;;;;;2419885;55;20949;-84
2023/02/03 13:58:30;;;;;;;1.98;0.62;;;12.50;64.50;;;;;;2420403;55;20953;-84
2023/02/03 14:01:24;;;;;;;1.48;0.60;;;12.50;65.00;;;;;;2420670;55;22057;-85
2023/02/03 14:03:50;;;;;;;2.53;1.00;;;12.50;64.80;;;;;;2205466;56;20984;-85
2023/02/03 14:07:03;;;;;;;3.17;1.80;;;12.50;64.80;;;;;;2204904;56;20969;-86
2023/02/03 14:09:37;;;;;;;2.70;1.35;;;12.50;63.70;;;;;;2422284;55;20945;-85